sensor_id;sensor_type;location;lat;lon;timestamp;pressure;altitude;pressure_sealevel;temperature;humidity
32873;BME280;19224;52.462;16.898;2023-03-14T00:02:17;98259.58;;;13.18;100.00
32873;BME280;19224;52.462;16.898;2023-03-14T00:04:58;98256.16;;;13.16;100.00
32873;BME280;19224;52.462;16.898;2023-03-14T00:07:25;98261.61;;;13.11;100.00
32873;BME280;19224;52.462;16.898;2023-03-14T00:10:06;98252.03;;;13.12;100.00
32873;BME280;19224;52.462;16.898;2023-03-14T00:12:37;98253.66;;;13.24;100.00
32873;BME280;19224;52.462;16.898;2023-03-14T00:15:11;98258.83;;;13.22;100.00
32873;BME280;19224;52.462;16.898;2023-03-14T00:17:44;98251.20;;;13.21;100.00
32873;BME280;19224;52.462;16.898;2023-03-14T00:20:19;98250.84;;;13.20;100.00
32873;BME280;19224;52.462;16.898;2023-03-14T00:22:49;98249.89;;;13.16;100.00
32873;BME280;19224;52.462;16.898;2023-03-14T00:25:21;98248.49;;;13.21;100.00
32873;BME280;19224;52.462;16.898;2023-03-14T00:27:56;98236.20;;;13.23;100.00
32873;BME280;19224;52.462;16.898;2023-03-14T00:30:29;98239.23;;;13.14;100.00
32873;BME280;19224;52.462;16.898;2023-03-14T00:32:59;98242.38;;;13.19;100.00
32873;BME280;19224;52.462;16.898;2023-03-14T00:35:31;98210.22;;;13.01;100.00
32873;BME280;19224;52.462;16.898;2023-03-14T00:38:05;98239.31;;;13.18;100.00
32873;BME280;19224;52.462;16.898;2023-03-14T00:40:39;98232.43;;;13.20;100.00
32873;BME280;19224;52.462;16.898;2023-03-14T00:43:12;98232.16;;;13.23;100.00
32873;BME280;19224;52.462;16.898;2023-03-14T00:45:42;98219.95;;;13.13;100.00
32873;BME280;19224;52.462;16.898;2023-03-14T00:48:13;98215.50;;;13.18;100.00
32873;BME280;19224;52.462;16.898;2023-03-14T00:50:45;98213.62;;;13.18;100.00
32873;BME280;19224;52.462;16.898;2023-03-14T00:53:17;98218.68;;;13.17;100.00
32873;BME280;19224;52.462;16.898;2023-03-14T00:55:48;98208.86;;;13.16;100.00
32873;BME280;19224;52.462;16.898;2023-03-14T00:58:24;98219.20;;;13.17;100.00
32873;BME280;19224;52.462;16.898;2023-03-14T01:00:58;98220.27;;;13.20;100.00
32873;BME280;19224;52.462;16.898;2023-03-14T01:03:31;98222.81;;;13.21;100.00
32873;BME280;19224;52.462;16.898;2023-03-14T01:06:21;98222.73;;;13.17;100.00
32873;BME280;19224;52.462;16.898;2023-03-14T01:08:48;98221.46;;;13.21;100.00
32873;BME280;19224;52.462;16.898;2023-03-14T01:11:29;98218.76;;;13.21;100.00
32873;BME280;19224;52.462;16.898;2023-03-14T01:14:01;98215.30;;;13.25;100.00
32873;BME280;19224;52.462;16.898;2023-03-14T01:16:39;98208.13;;;13.29;100.00
32873;BME280;19224;52.462;16.898;2023-03-14T01:19:06;98194.00;;;13.16;100.00
32873;BME280;19224;52.462;16.898;2023-03-14T01:21:44;98191.25;;;13.22;100.00
32873;BME280;19224;52.462;16.898;2023-03-14T01:24:14;98175.51;;;13.21;100.00
32873;BME280;19224;52.462;16.898;2023-03-14T01:26:45;98167.98;;;13.25;100.00
32873;BME280;19224;52.462;16.898;2023-03-14T01:29:17;98158.43;;;13.11;100.00
32873;BME280;19224;52.462;16.898;2023-03-14T01:31:48;98139.88;;;13.12;100.00
32873;BME280;19224;52.462;16.898;2023-03-14T01:34:18;98138.52;;;13.12;100.00
32873;BME280;19224;52.462;16.898;2023-03-14T01:36:49;98128.70;;;13.11;100.00
32873;BME280;19224;52.462;16.898;2023-03-14T01:39:27;98126.48;;;13.11;100.00
32873;BME280;19224;52.462;16.898;2023-03-14T01:41:56;98118.45;;;13.15;100.00
32873;BME280;19224;52.462;16.898;2023-03-14T01:47:18;98105.34;;;13.10;100.00
32873;BME280;19224;52.462;16.898;2023-03-14T01:49:59;98088.87;;;13.13;100.00
32873;BME280;19224;52.462;16.898;2023-03-14T01:55:17;98092.63;;;13.07;100.00
32873;BME280;19224;52.462;16.898;2023-03-14T01:58:06;98082.13;;;12.98;100.00
32873;BME280;19224;52.462;16.898;2023-03-14T02:00:40;98084.42;;;13.03;100.00
32873;BME280;19224;52.462;16.898;2023-03-14T02:03:22;98099.33;;;13.12;100.00
32873;BME280;19224;52.462;16.898;2023-03-14T02:05:49;98081.31;;;13.07;100.00
32873;BME280;19224;52.462;16.898;2023-03-14T02:08:22;98083.72;;;13.10;100.00
32873;BME280;19224;52.462;16.898;2023-03-14T02:10:53;98092.83;;;13.09;100.00
32873;BME280;19224;52.462;16.898;2023-03-14T02:13:24;98095.89;;;13.10;100.00
32873;BME280;19224;52.462;16.898;2023-03-14T02:15:58;98084.83;;;13.13;100.00
32873;BME280;19224;52.462;16.898;2023-03-14T02:18:29;98092.98;;;13.08;100.00
32873;BME280;19224;52.462;16.898;2023-03-14T02:21:23;98086.17;;;12.98;100.00
32873;BME280;19224;52.462;16.898;2023-03-14T02:24:18;98106.75;;;13.05;100.00
32873;BME280;19224;52.462;16.898;2023-03-14T02:27:16;98108.08;;;12.95;100.00
32873;BME280;19224;52.462;16.898;2023-03-14T02:30:01;98091.76;;;12.91;100.00
32873;BME280;19224;52.462;16.898;2023-03-14T02:32:29;98095.52;;;13.00;100.00
32873;BME280;19224;52.462;16.898;2023-03-14T02:35:11;98095.81;;;12.91;100.00
32873;BME280;19224;52.462;16.898;2023-03-14T02:38:13;98094.92;;;12.96;100.00
32873;BME280;19224;52.462;16.898;2023-03-14T02:40:43;98090.77;;;12.92;100.00
32873;BME280;19224;52.462;16.898;2023-03-14T02:43:14;98057.48;;;12.67;100.00
32873;BME280;19224;52.462;16.898;2023-03-14T02:45:49;98096.75;;;12.81;100.00
32873;BME280;19224;52.462;16.898;2023-03-14T02:48:43;98098.05;;;12.86;100.00
32873;BME280;19224;52.462;16.898;2023-03-14T02:51:13;98105.36;;;12.80;100.00
32873;BME280;19224;52.462;16.898;2023-03-14T02:53:44;98097.08;;;12.72;100.00
32873;BME280;19224;52.462;16.898;2023-03-14T02:56:15;98098.78;;;12.73;100.00
32873;BME280;19224;52.462;16.898;2023-03-14T02:58:45;98098.94;;;12.72;100.00
32873;BME280;19224;52.462;16.898;2023-03-14T03:01:16;98101.57;;;12.62;100.00
32873;BME280;19224;52.462;16.898;2023-03-14T03:03:47;98114.67;;;12.67;100.00
32873;BME280;19224;52.462;16.898;2023-03-14T03:06:18;98111.02;;;12.62;100.00
32873;BME280;19224;52.462;16.898;2023-03-14T03:08:48;98111.17;;;12.61;100.00
32873;BME280;19224;52.462;16.898;2023-03-14T03:11:19;98084.34;;;12.39;100.00
32873;BME280;19224;52.462;16.898;2023-03-14T03:13:50;98100.94;;;12.49;100.00
32873;BME280;19224;52.462;16.898;2023-03-14T03:16:22;98095.55;;;12.49;100.00
32873;BME280;19224;52.462;16.898;2023-03-14T03:18:52;98086.53;;;12.39;100.00
32873;BME280;19224;52.462;16.898;2023-03-14T03:21:24;98095.78;;;12.31;100.00
32873;BME280;19224;52.462;16.898;2023-03-14T03:23:56;98094.03;;;12.36;100.00
32873;BME280;19224;52.462;16.898;2023-03-14T03:26:28;98084.78;;;12.29;100.00
32873;BME280;19224;52.462;16.898;2023-03-14T03:28:58;98082.59;;;12.23;100.00
32873;BME280;19224;52.462;16.898;2023-03-14T03:31:29;98078.19;;;12.22;100.00
32873;BME280;19224;52.462;16.898;2023-03-14T03:34:02;98066.41;;;12.23;100.00
32873;BME280;19224;52.462;16.898;2023-03-14T03:36:34;98065.22;;;12.16;100.00
32873;BME280;19224;52.462;16.898;2023-03-14T03:39:05;98055.92;;;12.14;100.00
32873;BME280;19224;52.462;16.898;2023-03-14T03:41:41;98049.50;;;12.21;100.00
32873;BME280;19224;52.462;16.898;2023-03-14T03:44:30;98044.30;;;12.08;100.00
32873;BME280;19224;52.462;16.898;2023-03-14T03:47:01;98039.19;;;12.05;100.00
32873;BME280;19224;52.462;16.898;2023-03-14T03:49:32;98043.14;;;12.01;100.00
32873;BME280;19224;52.462;16.898;2023-03-14T03:52:02;98035.89;;;12.02;100.00
32873;BME280;19224;52.462;16.898;2023-03-14T03:54:33;98027.70;;;11.98;100.00
32873;BME280;19224;52.462;16.898;2023-03-14T03:57:05;98021.95;;;11.97;100.00
32873;BME280;19224;52.462;16.898;2023-03-14T03:59:38;98017.67;;;11.94;100.00
32873;BME280;19224;52.462;16.898;2023-03-14T04:02:12;98011.20;;;11.92;100.00
32873;BME280;19224;52.462;16.898;2023-03-14T04:04:47;98003.20;;;11.95;100.00
32873;BME280;19224;52.462;16.898;2023-03-14T04:07:17;97996.17;;;11.84;100.00
32873;BME280;19224;52.462;16.898;2023-03-14T04:09:50;98000.12;;;11.80;100.00
32873;BME280;19224;52.462;16.898;2023-03-14T04:12:20;98005.77;;;11.77;100.00
32873;BME280;19224;52.462;16.898;2023-03-14T04:14:50;98003.88;;;11.68;100.00
32873;BME280;19224;52.462;16.898;2023-03-14T04:17:24;97999.88;;;11.62;100.00
32873;BME280;19224;52.462;16.898;2023-03-14T04:19:57;98002.08;;;11.57;100.00
32873;BME280;19224;52.462;16.898;2023-03-14T04:22:32;98000.38;;;11.51;100.00
32873;BME280;19224;52.462;16.898;2023-03-14T04:25:05;98003.97;;;11.46;100.00
32873;BME280;19224;52.462;16.898;2023-03-14T04:27:37;98012.28;;;11.43;100.00
32873;BME280;19224;52.462;16.898;2023-03-14T04:30:11;97986.71;;;11.37;100.00
32873;BME280;19224;52.462;16.898;2023-03-14T04:32:42;97995.81;;;11.31;100.00
32873;BME280;19224;52.462;16.898;2023-03-14T04:35:15;98022.91;;;11.29;100.00
32873;BME280;19224;52.462;16.898;2023-03-14T04:38:03;98019.94;;;11.32;100.00
32873;BME280;19224;52.462;16.898;2023-03-14T04:40:36;98001.77;;;11.14;100.00
32873;BME280;19224;52.462;16.898;2023-03-14T04:43:10;98001.55;;;11.06;100.00
32873;BME280;19224;52.462;16.898;2023-03-14T04:45:52;97990.77;;;11.06;100.00
32873;BME280;19224;52.462;16.898;2023-03-14T04:48:17;97977.44;;;10.99;100.00
32873;BME280;19224;52.462;16.898;2023-03-14T04:50:51;97984.08;;;10.95;100.00
32873;BME280;19224;52.462;16.898;2023-03-14T04:53:22;97985.44;;;10.89;100.00
32873;BME280;19224;52.462;16.898;2023-03-14T04:55:55;97985.55;;;10.88;100.00
32873;BME280;19224;52.462;16.898;2023-03-14T04:58:26;97972.62;;;10.82;100.00
32873;BME280;19224;52.462;16.898;2023-03-14T05:01:04;97965.30;;;10.73;100.00
32873;BME280;19224;52.462;16.898;2023-03-14T05:03:35;97966.64;;;10.73;100.00
32873;BME280;19224;52.462;16.898;2023-03-14T05:06:10;97966.64;;;10.73;100.00
32873;BME280;19224;52.462;16.898;2023-03-14T05:08:40;97969.33;;;10.73;100.00
32873;BME280;19224;52.462;16.898;2023-03-14T05:11:11;97975.55;;;10.84;100.00
32873;BME280;19224;52.462;16.898;2023-03-14T05:13:42;97973.86;;;10.78;100.00
32873;BME280;19224;52.462;16.898;2023-03-14T05:16:16;97971.91;;;10.74;100.00
32873;BME280;19224;52.462;16.898;2023-03-14T05:18:51;97979.48;;;10.75;100.00
32873;BME280;19224;52.462;16.898;2023-03-14T05:21:21;97989.78;;;10.70;100.00
32873;BME280;19224;52.462;16.898;2023-03-14T05:23:57;98001.28;;;10.66;100.00
32873;BME280;19224;52.462;16.898;2023-03-14T05:26:24;98007.77;;;10.64;100.00
32873;BME280;19224;52.462;16.898;2023-03-14T05:29:07;97998.84;;;10.69;100.00
32873;BME280;19224;52.462;16.898;2023-03-14T05:31:35;97993.84;;;10.59;100.00
32873;BME280;19224;52.462;16.898;2023-03-14T05:34:06;97996.63;;;10.63;100.00
32873;BME280;19224;52.462;16.898;2023-03-14T05:36:38;97995.17;;;10.64;100.00
32873;BME280;19224;52.462;16.898;2023-03-14T05:39:09;97995.65;;;10.64;100.00
32873;BME280;19224;52.462;16.898;2023-03-14T05:41:42;98001.89;;;10.70;100.00
32873;BME280;19224;52.462;16.898;2023-03-14T05:44:12;97994.30;;;10.69;100.00
32873;BME280;19224;52.462;16.898;2023-03-14T05:46:47;97997.50;;;10.69;100.00
32873;BME280;19224;52.462;16.898;2023-03-14T05:49:19;97986.34;;;10.79;100.00
32873;BME280;19224;52.462;16.898;2023-03-14T05:51:56;97985.00;;;10.79;100.00
32873;BME280;19224;52.462;16.898;2023-03-14T05:54:22;97982.17;;;10.75;100.00
32873;BME280;19224;52.462;16.898;2023-03-14T05:56:53;97994.27;;;10.80;100.00
32873;BME280;19224;52.462;16.898;2023-03-14T05:59:23;97983.86;;;10.81;100.00
32873;BME280;19224;52.462;16.898;2023-03-14T06:01:56;97992.55;;;10.85;100.00
32873;BME280;19224;52.462;16.898;2023-03-14T06:04:27;97980.16;;;10.93;100.00
32873;BME280;19224;52.462;16.898;2023-03-14T06:06:57;97992.78;;;10.93;100.00
32873;BME280;19224;52.462;16.898;2023-03-14T06:09:33;97989.97;;;10.94;100.00
32873;BME280;19224;52.462;16.898;2023-03-14T06:12:05;97982.34;;;10.99;100.00
32873;BME280;19224;52.462;16.898;2023-03-14T06:14:40;97987.02;;;10.97;100.00
32873;BME280;19224;52.462;16.898;2023-03-14T06:17:11;97989.79;;;11.07;100.00
32873;BME280;19224;52.462;16.898;2023-03-14T06:19:42;97997.97;;;11.11;100.00
32873;BME280;19224;52.462;16.898;2023-03-14T06:22:13;97987.58;;;11.12;100.00
32873;BME280;19224;52.462;16.898;2023-03-14T06:24:48;97990.51;;;11.09;100.00
32873;BME280;19224;52.462;16.898;2023-03-14T06:27:18;97988.78;;;11.13;100.00
32873;BME280;19224;52.462;16.898;2023-03-14T06:29:48;97991.09;;;11.18;100.00
32873;BME280;19224;52.462;16.898;2023-03-14T06:32:19;98006.53;;;11.16;100.00
32873;BME280;19224;52.462;16.898;2023-03-14T06:34:59;97995.11;;;11.23;100.00
32873;BME280;19224;52.462;16.898;2023-03-14T06:37:29;97993.16;;;11.20;100.00
32873;BME280;19224;52.462;16.898;2023-03-14T06:40:00;97988.28;;;11.19;100.00
32873;BME280;19224;52.462;16.898;2023-03-14T06:42:30;97989.61;;;11.25;100.00
32873;BME280;19224;52.462;16.898;2023-03-14T06:45:05;97982.45;;;11.35;100.00
32873;BME280;19224;52.462;16.898;2023-03-14T06:47:40;97977.16;;;11.39;100.00
32873;BME280;19224;52.462;16.898;2023-03-14T06:50:11;97968.23;;;11.33;100.00
32873;BME280;19224;52.462;16.898;2023-03-14T06:52:50;97980.81;;;11.43;100.00
32873;BME280;19224;52.462;16.898;2023-03-14T06:55:17;97982.77;;;11.47;100.00
32873;BME280;19224;52.462;16.898;2023-03-14T06:57:53;97976.11;;;11.51;100.00
32873;BME280;19224;52.462;16.898;2023-03-14T07:00:24;97967.55;;;11.57;100.00
32873;BME280;19224;52.462;16.898;2023-03-14T07:02:58;97980.87;;;11.53;100.00
32873;BME280;19224;52.462;16.898;2023-03-14T07:05:30;97990.83;;;11.58;100.00
32873;BME280;19224;52.462;16.898;2023-03-14T07:08:03;97985.88;;;11.63;100.00
32873;BME280;19224;52.462;16.898;2023-03-14T07:10:36;97974.37;;;11.61;100.00
32873;BME280;19224;52.462;16.898;2023-03-14T07:13:08;97971.41;;;11.64;100.00
32873;BME280;19224;52.462;16.898;2023-03-14T07:15:39;97970.89;;;11.70;100.00
32873;BME280;19224;52.462;16.898;2023-03-14T07:18:09;97982.25;;;11.79;100.00
32873;BME280;19224;52.462;16.898;2023-03-14T07:20:41;97978.91;;;11.81;100.00
32873;BME280;19224;52.462;16.898;2023-03-14T07:23:12;97979.27;;;11.82;100.00
32873;BME280;19224;52.462;16.898;2023-03-14T07:25:46;97982.05;;;11.86;100.00
32873;BME280;19224;52.462;16.898;2023-03-14T07:28:17;97969.80;;;11.87;100.00
32873;BME280;19224;52.462;16.898;2023-03-14T07:30:50;97963.09;;;11.96;100.00
32873;BME280;19224;52.462;16.898;2023-03-14T07:33:24;97966.15;;;11.97;100.00
32873;BME280;19224;52.462;16.898;2023-03-14T07:35:57;97960.23;;;12.03;100.00
32873;BME280;19224;52.462;16.898;2023-03-14T07:38:29;97954.84;;;12.03;100.00
32873;BME280;19224;52.462;16.898;2023-03-14T07:41:02;97960.67;;;12.08;100.00
32873;BME280;19224;52.462;16.898;2023-03-14T07:43:34;97960.03;;;12.10;100.00
32873;BME280;19224;52.462;16.898;2023-03-14T07:46:10;97981.18;;;12.05;100.00
32873;BME280;19224;52.462;16.898;2023-03-14T07:48:37;97973.48;;;12.16;100.00
32873;BME280;19224;52.462;16.898;2023-03-14T07:51:07;97973.27;;;12.13;100.00
32873;BME280;19224;52.462;16.898;2023-03-14T07:53:39;97969.55;;;12.20;100.00
32873;BME280;19224;52.462;16.898;2023-03-14T07:56:11;97982.75;;;12.23;100.00
32873;BME280;19224;52.462;16.898;2023-03-14T07:58:41;97967.58;;;12.31;100.00
32873;BME280;19224;52.462;16.898;2023-03-14T08:01:15;97984.19;;;12.42;100.00
32873;BME280;19224;52.462;16.898;2023-03-14T08:03:45;97978.84;;;12.36;100.00
32873;BME280;19224;52.462;16.898;2023-03-14T08:06:16;97976.93;;;12.42;100.00
32873;BME280;19224;52.462;16.898;2023-03-14T08:08:46;97977.75;;;12.48;100.00
32873;BME280;19224;52.462;16.898;2023-03-14T08:11:17;97971.78;;;12.54;100.00
32873;BME280;19224;52.462;16.898;2023-03-14T08:13:49;97982.33;;;12.57;100.00
32873;BME280;19224;52.462;16.898;2023-03-14T08:16:21;97985.56;;;12.66;100.00
32873;BME280;19224;52.462;16.898;2023-03-14T08:18:55;97985.81;;;12.78;100.00
32873;BME280;19224;52.462;16.898;2023-03-14T08:21:28;97978.12;;;12.83;100.00
32873;BME280;19224;52.462;16.898;2023-03-14T08:23:57;98002.80;;;12.84;100.00
32873;BME280;19224;52.462;16.898;2023-03-14T08:26:29;98005.56;;;12.88;100.00
32873;BME280;19224;52.462;16.898;2023-03-14T08:28:59;98000.23;;;12.98;100.00
32873;BME280;19224;52.462;16.898;2023-03-14T08:31:30;98004.93;;;12.96;100.00
32873;BME280;19224;52.462;16.898;2023-03-14T08:34:05;98003.94;;;13.06;100.00
32873;BME280;19224;52.462;16.898;2023-03-14T08:36:35;98002.88;;;13.03;100.00
32873;BME280;19224;52.462;16.898;2023-03-14T08:39:06;98002.30;;;13.00;100.00
32873;BME280;19224;52.462;16.898;2023-03-14T08:41:37;98000.81;;;13.01;100.00
32873;BME280;19224;52.462;16.898;2023-03-14T08:44:12;97991.84;;;13.10;100.00
32873;BME280;19224;52.462;16.898;2023-03-14T08:46:42;97995.83;;;13.06;100.00
32873;BME280;19224;52.462;16.898;2023-03-14T08:49:14;97993.23;;;13.20;100.00
32873;BME280;19224;52.462;16.898;2023-03-14T08:51:47;97994.58;;;13.20;100.00
32873;BME280;19224;52.462;16.898;2023-03-14T08:54:22;97996.98;;;13.23;100.00
32873;BME280;19224;52.462;16.898;2023-03-14T08:56:48;97986.81;;;13.30;100.00
32873;BME280;19224;52.462;16.898;2023-03-14T08:59:19;97991.51;;;13.38;100.00
32873;BME280;19224;52.462;16.898;2023-03-14T09:01:50;97990.67;;;13.37;100.00
32873;BME280;19224;52.462;16.898;2023-03-14T09:04:23;97991.89;;;13.39;100.00
32873;BME280;19224;52.462;16.898;2023-03-14T09:06:54;97986.62;;;13.37;100.00
32873;BME280;19224;52.462;16.898;2023-03-14T09:09:26;98002.64;;;13.44;100.00
32873;BME280;19224;52.462;16.898;2023-03-14T09:12:00;98001.99;;;13.46;100.00
32873;BME280;19224;52.462;16.898;2023-03-14T09:14:30;98002.34;;;13.47;100.00
32873;BME280;19224;52.462;16.898;2023-03-14T09:17:04;98008.75;;;13.46;100.00
32873;BME280;19224;52.462;16.898;2023-03-14T09:19:34;98001.92;;;13.52;100.00
32873;BME280;19224;52.462;16.898;2023-03-14T09:22:12;97998.36;;;13.42;100.00
32873;BME280;19224;52.462;16.898;2023-03-14T09:24:44;97992.44;;;13.42;100.00
32873;BME280;19224;52.462;16.898;2023-03-14T09:27:15;97990.25;;;13.42;100.00
32873;BME280;19224;52.462;16.898;2023-03-14T09:29:52;97989.75;;;13.52;100.00
32873;BME280;19224;52.462;16.898;2023-03-14T09:32:25;97981.05;;;13.58;100.00
32873;BME280;19224;52.462;16.898;2023-03-14T09:34:55;97989.03;;;13.59;100.00
32873;BME280;19224;52.462;16.898;2023-03-14T09:37:26;97988.38;;;13.61;100.00
32873;BME280;19224;52.462;16.898;2023-03-14T09:39:59;97995.73;;;13.55;100.00
32873;BME280;19224;52.462;16.898;2023-03-14T09:42:29;97995.92;;;13.58;100.00
32873;BME280;19224;52.462;16.898;2023-03-14T09:58:02;97978.97;;;13.65;100.00
32873;BME280;19224;52.462;16.898;2023-03-14T10:00:33;97984.82;;;13.70;100.00
32873;BME280;19224;52.462;16.898;2023-03-14T10:05:50;97986.31;;;13.78;100.00
32873;BME280;19224;52.462;16.898;2023-03-14T10:08:21;97984.16;;;13.91;100.00
32873;BME280;19224;52.462;16.898;2023-03-14T10:10:52;97980.70;;;13.99;100.00
32873;BME280;19224;52.462;16.898;2023-03-14T10:13:27;97976.22;;;14.03;100.00
32873;BME280;19224;52.462;16.898;2023-03-14T10:16:04;97985.30;;;14.21;100.00
32873;BME280;19224;52.462;16.898;2023-03-14T10:18:39;97977.55;;;14.22;100.00
32873;BME280;19224;52.462;16.898;2023-03-14T10:21:26;97977.73;;;14.25;100.00
32873;BME280;19224;52.462;16.898;2023-03-14T10:24:27;97979.08;;;14.34;100.00
32873;BME280;19224;52.462;16.898;2023-03-14T10:27:17;97982.63;;;14.35;100.00
32873;BME280;19224;52.462;16.898;2023-03-14T10:29:54;97984.19;;;14.37;100.00
32873;BME280;19224;52.462;16.898;2023-03-14T10:32:27;97989.72;;;14.45;100.00
32873;BME280;19224;52.462;16.898;2023-03-14T10:38:02;97978.41;;;14.49;100.00
32873;BME280;19224;52.462;16.898;2023-03-14T10:40:37;97981.64;;;14.49;100.00
32873;BME280;19224;52.462;16.898;2023-03-14T10:43:17;97979.67;;;14.55;100.00
32873;BME280;19224;52.462;16.898;2023-03-14T10:45:47;97979.59;;;14.47;100.00
32873;BME280;19224;52.462;16.898;2023-03-14T10:48:25;97989.06;;;14.47;100.00
32873;BME280;19224;52.462;16.898;2023-03-14T10:54:15;98002.53;;;14.43;100.00
32873;BME280;19224;52.462;16.898;2023-03-14T10:56:46;97993.83;;;14.49;100.00
32873;BME280;19224;52.462;16.898;2023-03-14T10:59:17;97991.80;;;14.38;100.00
32873;BME280;19224;52.462;16.898;2023-03-14T11:07:46;97979.00;;;14.30;100.00
32873;BME280;19224;52.462;16.898;2023-03-14T11:13:23;97984.23;;;14.28;100.00
32873;BME280;19224;52.462;16.898;2023-03-14T11:19:38;97993.05;;;14.30;100.00
32873;BME280;19224;52.462;16.898;2023-03-14T11:31:05;97977.73;;;14.25;100.00
32873;BME280;19224;52.462;16.898;2023-03-14T11:33:46;97979.52;;;14.30;100.00
32873;BME280;19224;52.462;16.898;2023-03-14T11:36:24;97976.77;;;14.39;100.00
32873;BME280;19224;52.462;16.898;2023-03-14T11:38:58;97976.88;;;14.47;100.00
32873;BME280;19224;52.462;16.898;2023-03-14T11:41:41;97973.73;;;14.51;100.00
32873;BME280;19224;52.462;16.898;2023-03-14T11:44:26;97969.22;;;14.56;100.00
32873;BME280;19224;52.462;16.898;2023-03-14T11:50:04;97985.90;;;14.65;100.00
32873;BME280;19224;52.462;16.898;2023-03-14T11:52:50;97982.98;;;14.76;100.00
32873;BME280;19224;52.462;16.898;2023-03-14T11:55:27;97977.23;;;14.88;100.00
32873;BME280;19224;52.462;16.898;2023-03-14T12:00:51;97969.12;;;15.06;99.67
32873;BME280;19224;52.462;16.898;2023-03-14T12:09:05;97954.08;;;15.25;98.29
32873;BME280;19224;52.462;16.898;2023-03-14T12:11:51;97960.16;;;15.23;96.73
32873;BME280;19224;52.462;16.898;2023-03-14T12:14:32;97961.00;;;15.23;97.51
32873;BME280;19224;52.462;16.898;2023-03-14T12:17:27;97955.34;;;15.17;98.00
32873;BME280;19224;52.462;16.898;2023-03-14T12:25:31;97950.70;;;15.09;89.57
32873;BME280;19224;52.462;16.898;2023-03-14T12:28:20;97951.27;;;15.17;89.74
32873;BME280;19224;52.462;16.898;2023-03-14T12:30:51;97950.36;;;15.26;86.79
32873;BME280;19224;52.462;16.898;2023-03-14T12:33:30;97943.64;;;15.30;87.58
32873;BME280;19224;52.462;16.898;2023-03-14T12:36:11;97960.66;;;15.36;82.39
32873;BME280;19224;52.462;16.898;2023-03-14T12:39:01;97945.97;;;15.29;81.44
32873;BME280;19224;52.462;16.898;2023-03-14T12:41:46;97955.03;;;15.20;80.88
32873;BME280;19224;52.462;16.898;2023-03-14T12:44:39;97957.22;;;15.16;79.44
32873;BME280;19224;52.462;16.898;2023-03-14T12:49:55;97950.70;;;15.09;78.22
32873;BME280;19224;52.462;16.898;2023-03-14T12:52:49;97952.59;;;14.95;80.23
32873;BME280;19224;52.462;16.898;2023-03-14T12:58:26;97953.48;;;15.00;78.89
32873;BME280;19224;52.462;16.898;2023-03-14T13:00:59;97955.47;;;14.98;79.36
32873;BME280;19224;52.462;16.898;2023-03-14T13:03:55;97955.81;;;14.99;80.33
32873;BME280;19224;52.462;16.898;2023-03-14T13:06:57;97962.34;;;15.06;79.72
32873;BME280;19224;52.462;16.898;2023-03-14T13:09:35;97954.02;;;15.21;78.24
32873;BME280;19224;52.462;16.898;2023-03-14T13:12:14;97955.44;;;15.25;79.39
32873;BME280;19224;52.462;16.898;2023-03-14T13:14:49;97962.16;;;15.52;76.87
32873;BME280;19224;52.462;16.898;2023-03-14T13:17:27;97955.94;;;15.59;77.28
32873;BME280;19224;52.462;16.898;2023-03-14T13:20:09;97952.34;;;15.72;76.27
32873;BME280;19224;52.462;16.898;2023-03-14T13:22:35;97948.94;;;15.96;75.65
32873;BME280;19224;52.462;16.898;2023-03-14T13:25:11;97954.18;;;16.19;73.65
32873;BME280;19224;52.462;16.898;2023-03-14T13:27:42;97954.11;;;16.07;73.85
32873;BME280;19224;52.462;16.898;2023-03-14T13:30:28;97951.03;;;16.02;73.97
32873;BME280;19224;52.462;16.898;2023-03-14T13:33:02;97955.19;;;16.14;74.48
32873;BME280;19224;52.462;16.898;2023-03-14T13:35:49;97952.47;;;16.14;72.69
32873;BME280;19224;52.462;16.898;2023-03-14T13:38:28;97951.64;;;15.92;73.43
32873;BME280;19224;52.462;16.898;2023-03-14T13:41:03;97939.83;;;15.79;74.75
32873;BME280;19224;52.462;16.898;2023-03-14T13:43:39;97941.78;;;15.69;75.53
32873;BME280;19224;52.462;16.898;2023-03-14T13:46:22;97946.92;;;15.72;76.52
32873;BME280;19224;52.462;16.898;2023-03-14T13:49:01;97943.83;;;15.71;77.82
32873;BME280;19224;52.462;16.898;2023-03-14T13:51:32;97947.13;;;15.79;78.04
32873;BME280;19224;52.462;16.898;2023-03-14T13:54:03;97945.05;;;15.77;77.93
32873;BME280;19224;52.462;16.898;2023-03-14T13:56:34;97941.64;;;15.71;78.56
32873;BME280;19224;52.462;16.898;2023-03-14T13:59:04;97946.66;;;15.66;80.00
32873;BME280;19224;52.462;16.898;2023-03-14T14:01:37;97941.02;;;15.59;81.65
32873;BME280;19224;52.462;16.898;2023-03-14T14:04:14;97943.36;;;15.54;82.85
32873;BME280;19224;52.462;16.898;2023-03-14T14:06:55;97939.62;;;15.51;83.46
32873;BME280;19224;52.462;16.898;2023-03-14T14:09:47;97935.44;;;15.39;85.36
32873;BME280;19224;52.462;16.898;2023-03-14T14:12:37;97939.31;;;15.37;86.63
32873;BME280;19224;52.462;16.898;2023-03-14T14:15:16;97942.28;;;15.30;86.22
32873;BME280;19224;52.462;16.898;2023-03-14T14:17:51;97939.56;;;15.30;85.37
32873;BME280;19224;52.462;16.898;2023-03-14T14:20:33;97933.08;;;15.27;85.20
32873;BME280;19224;52.462;16.898;2023-03-14T14:23:14;97925.63;;;15.11;86.08
32873;BME280;19224;52.462;16.898;2023-03-14T14:25:39;97934.11;;;15.12;85.50
32873;BME280;19224;52.462;16.898;2023-03-14T14:33:43;97924.72;;;14.89;86.05
32873;BME280;19224;52.462;16.898;2023-03-14T14:41:47;97931.68;;;14.74;86.46